DRGN03 YAMB-YAMB
Flight info
| Callsign | DRGN03 |
|---|---|
| Flight time | 3h 34m |
| Altitude | 32000 |
| Route | TATEN DCT APAGI DCT ALDAR W128 SANAD DCT YWLM DCT WLM088025 DCT 331214S1525849E 325119S1523314E 321502S1524728E 314719S1530040E 311943S1531412E 304437S1533041E 294457S1551309E DCT LAROS DCT SEMAJ DCT CG |
| Aircraft | A332/H-SDE3GHIJ2J3J5M1RVWXY/LB2D1 |
Departure
| Time | 2026-04-15 09:36 |
|---|---|
| Airport | RAAF Base Amberley (YAMB) |
Arrival
| Time | 2026-04-15 13:10 |
|---|---|
| Airport | RAAF Base Amberley (YAMB) |
| Time | Latitude | Longitude | Altitude | Speed | Heading |
|---|---|---|---|---|---|
| 2026-04-15 09:20 | -27.62433 | 152.70188 | 101 ft | 0 kts | 159° |
| 2026-04-15 09:32 | -27.62453 | 152.70197 | 102 ft | 6 kts | 158° |
| 2026-04-15 09:32 | -27.62469 | 152.70240 | 103 ft | 7 kts | 101° |
| 2026-04-15 09:32 | -27.62453 | 152.70298 | 104 ft | 10 kts | 73° |
| 2026-04-15 09:32 | -27.62429 | 152.70374 | 102 ft | 10 kts | 66° |
| 2026-04-15 09:33 | -27.62380 | 152.70395 | 105 ft | 7 kts | 357° |
| 2026-04-15 09:33 | -27.62325 | 152.70374 | 104 ft | 10 kts | 341° |
| 2026-04-15 09:33 | -27.62257 | 152.70366 | 105 ft | 10 kts | 5° |
| 2026-04-15 09:33 | -27.62220 | 152.70408 | 106 ft | 6 kts | 65° |
| 2026-04-15 09:34 | -27.62207 | 152.70448 | 107 ft | 5 kts | 70° |
| 2026-04-15 09:34 | -27.62195 | 152.70485 | 107 ft | 6 kts | 70° |
| 2026-04-15 09:34 | -27.62203 | 152.70538 | 108 ft | 6 kts | 122° |
| 2026-04-15 09:34 | -27.62232 | 152.70552 | 108 ft | 3 kts | 156° |
| 2026-04-15 09:35 | -27.62233 | 152.70553 | 108 ft | 0 kts | 156° |
| 2026-04-15 09:35 | -27.62303 | 152.70585 | 107 ft | 44 kts | 158° |
| 2026-04-15 09:35 | -27.62858 | 152.70827 | 107 ft | 124 kts | 159° |
| 2026-04-15 09:35 | -27.63852 | 152.71257 | 207 ft | 174 kts | 159° |
| 2026-04-15 09:36 | -27.64964 | 152.71730 | 999 ft | 169 kts | 160° |
| 2026-04-15 09:36 | -27.66096 | 152.72200 | 1658 ft | 181 kts | 160° |
| 2026-04-15 09:36 | -27.67346 | 152.72704 | 2097 ft | 198 kts | 160° |
| 2026-04-15 09:36 | -27.68705 | 152.73248 | 2438 ft | 218 kts | 161° |
| 2026-04-15 09:37 | -27.70203 | 152.73861 | 2777 ft | 240 kts | 160° |
| 2026-04-15 09:37 | -27.71829 | 152.74525 | 3153 ft | 257 kts | 166° |
| 2026-04-15 09:37 | -27.73626 | 152.74616 | 3666 ft | 262 kts | 194° |
| 2026-04-15 09:37 | -27.75399 | 152.74171 | 4362 ft | 259 kts | 195° |
| 2026-04-15 09:38 | -27.77164 | 152.73699 | 4925 ft | 265 kts | 197° |
| 2026-04-15 09:38 | -27.78978 | 152.73202 | 5526 ft | 269 kts | 196° |
| 2026-04-15 09:38 | -27.80794 | 152.72706 | 6353 ft | 267 kts | 196° |
| 2026-04-15 09:38 | -27.82610 | 152.72211 | 7041 ft | 271 kts | 196° |
| 2026-04-15 09:39 | -27.84463 | 152.71704 | 7683 ft | 276 kts | 196° |
| 2026-04-15 09:39 | -27.86338 | 152.71189 | 8374 ft | 279 kts | 196° |
| 2026-04-15 09:39 | -27.88236 | 152.70668 | 9045 ft | 282 kts | 196° |
| 2026-04-15 09:39 | -27.90159 | 152.70139 | 9723 ft | 286 kts | 195° |
| 2026-04-15 09:40 | -27.92105 | 152.69603 | 10298 ft | 293 kts | 196° |
| 2026-04-15 09:40 | -27.94153 | 152.69033 | 10473 ft | 313 kts | 195° |
| 2026-04-15 09:40 | -27.96313 | 152.68430 | 10661 ft | 333 kts | 195° |
| 2026-04-15 09:40 | -27.98594 | 152.67795 | 11185 ft | 339 kts | 195° |
| 2026-04-15 09:41 | -28.00896 | 152.67155 | 11865 ft | 342 kts | 196° |
| 2026-04-15 09:41 | -28.03220 | 152.66509 | 12516 ft | 345 kts | 196° |
| 2026-04-15 09:41 | -28.05566 | 152.65856 | 13185 ft | 349 kts | 196° |
| 2026-04-15 09:41 | -28.07934 | 152.65196 | 13847 ft | 352 kts | 196° |
| 2026-04-15 09:42 | -28.10324 | 152.64529 | 14433 ft | 356 kts | 197° |
| 2026-04-15 09:42 | -28.12743 | 152.63854 | 15007 ft | 359 kts | 197° |
| 2026-04-15 09:42 | -28.15184 | 152.63172 | 15602 ft | 363 kts | 195° |
| 2026-04-15 09:42 | -28.17664 | 152.62541 | 16157 ft | 367 kts | 193° |
| 2026-04-15 09:43 | -28.20141 | 152.61933 | 16692 ft | 371 kts | 194° |
| 2026-04-15 09:43 | -28.22661 | 152.61279 | 17256 ft | 373 kts | 195° |
| 2026-04-15 09:43 | -28.25205 | 152.60583 | 17832 ft | 377 kts | 196° |
| 2026-04-15 09:43 | -28.27752 | 152.59865 | 18430 ft | 379 kts | 195° |
| 2026-04-15 09:44 | -28.30344 | 152.59154 | 18870 ft | 384 kts | 195° |
| 2026-04-15 09:44 | -28.32948 | 152.58451 | 19411 ft | 386 kts | 195° |
| 2026-04-15 09:44 | -28.35571 | 152.57726 | 19934 ft | 388 kts | 197° |
| 2026-04-15 09:44 | -28.38202 | 152.56982 | 20499 ft | 390 kts | 197° |
| 2026-04-15 09:45 | -28.40841 | 152.56227 | 21044 ft | 392 kts | 198° |
| 2026-04-15 09:45 | -28.43466 | 152.55471 | 21598 ft | 395 kts | 198° |
| 2026-04-15 09:45 | -28.46179 | 152.54712 | 22166 ft | 399 kts | 196° |
| 2026-04-15 09:45 | -28.48923 | 152.54276 | 22719 ft | 408 kts | 188° |
| 2026-04-15 09:46 | -28.51793 | 152.54254 | 23280 ft | 418 kts | 181° |
| 2026-04-15 09:46 | -28.54712 | 152.54613 | 23791 ft | 426 kts | 179° |
| 2026-04-15 09:46 | -28.57669 | 152.55015 | 24042 ft | 428 kts | 179° |
| 2026-04-15 09:46 | -28.60630 | 152.55408 | 24131 ft | 427 kts | 179° |
| 2026-04-15 09:47 | -28.63589 | 152.55799 | 24143 ft | 427 kts | 180° |
| 2026-04-15 09:47 | -28.66543 | 152.56188 | 24141 ft | 427 kts | 180° |
| 2026-04-15 09:47 | -28.69496 | 152.56577 | 24139 ft | 427 kts | 180° |
| 2026-04-15 09:47 | -28.72451 | 152.56967 | 24139 ft | 427 kts | 180° |
| 2026-04-15 09:48 | -28.75401 | 152.57358 | 24141 ft | 427 kts | 180° |
| 2026-04-15 09:48 | -28.78346 | 152.57748 | 24136 ft | 426 kts | 180° |
| 2026-04-15 09:48 | -28.81299 | 152.58124 | 24133 ft | 423 kts | 183° |
| 2026-04-15 09:48 | -28.84206 | 152.58041 | 24137 ft | 414 kts | 194° |
| 2026-04-15 09:49 | -28.86948 | 152.57351 | 24138 ft | 404 kts | 205° |
| 2026-04-15 09:49 | -28.89505 | 152.56127 | 24143 ft | 396 kts | 212° |
| 2026-04-15 09:49 | -28.91993 | 152.54758 | 24140 ft | 397 kts | 212° |
| 2026-04-15 09:49 | -28.94492 | 152.53402 | 24142 ft | 397 kts | 212° |
| 2026-04-15 09:50 | -28.96987 | 152.52050 | 24141 ft | 397 kts | 211° |
| 2026-04-15 09:50 | -28.99477 | 152.50702 | 24141 ft | 396 kts | 212° |
| 2026-04-15 09:50 | -29.01969 | 152.49350 | 24147 ft | 397 kts | 212° |
| 2026-04-15 09:50 | -29.04467 | 152.47992 | 24147 ft | 397 kts | 212° |
| 2026-04-15 09:51 | -29.06955 | 152.46638 | 24149 ft | 396 kts | 212° |
| 2026-04-15 09:51 | -29.09442 | 152.45283 | 24149 ft | 396 kts | 212° |
| 2026-04-15 09:51 | -29.11931 | 152.43927 | 24149 ft | 396 kts | 212° |
| 2026-04-15 09:51 | -29.14417 | 152.42573 | 24150 ft | 396 kts | 212° |
| 2026-04-15 09:52 | -29.16883 | 152.41230 | 24156 ft | 396 kts | 212° |
| 2026-04-15 09:52 | -29.19375 | 152.39872 | 24153 ft | 397 kts | 212° |
| 2026-04-15 09:52 | -29.21870 | 152.38511 | 24169 ft | 397 kts | 212° |
| 2026-04-15 09:52 | -29.24378 | 152.37141 | 24445 ft | 400 kts | 212° |
| 2026-04-15 09:53 | -29.26888 | 152.35772 | 25080 ft | 398 kts | 212° |
| 2026-04-15 09:53 | -29.29393 | 152.34409 | 25628 ft | 400 kts | 212° |
| 2026-04-15 09:53 | -29.31918 | 152.33030 | 26138 ft | 403 kts | 213° |
| 2026-04-15 09:53 | -29.34456 | 152.31643 | 26682 ft | 405 kts | 213° |
| 2026-04-15 09:54 | -29.36978 | 152.30264 | 27233 ft | 407 kts | 213° |
| 2026-04-15 09:54 | -29.39550 | 152.28857 | 27740 ft | 410 kts | 214° |
| 2026-04-15 09:54 | -29.42127 | 152.27448 | 28259 ft | 412 kts | 214° |
| 2026-04-15 09:54 | -29.44728 | 152.26024 | 28779 ft | 414 kts | 214° |
| 2026-04-15 09:55 | -29.47335 | 152.24596 | 29287 ft | 417 kts | 214° |
| 2026-04-15 09:55 | -29.49963 | 152.23156 | 29795 ft | 420 kts | 214° |
| 2026-04-15 09:55 | -29.52605 | 152.21707 | 30296 ft | 422 kts | 215° |
| 2026-04-15 09:55 | -29.55268 | 152.20246 | 30724 ft | 425 kts | 215° |
| 2026-04-15 09:56 | -29.57942 | 152.18779 | 31166 ft | 427 kts | 215° |
| 2026-04-15 09:56 | -29.60683 | 152.17389 | 31592 ft | 436 kts | 210° |
| 2026-04-15 09:56 | -29.66413 | 152.15000 | 32155 ft | 442 kts | 210° |
| 2026-04-15 09:57 | -29.69328 | 152.13771 | 32186 ft | 452 kts | 210° |
| 2026-04-15 09:57 | -29.75293 | 152.11249 | 32190 ft | 463 kts | 210° |
| 2026-04-15 09:58 | -29.81414 | 152.08665 | 32192 ft | 472 kts | 210° |
| 2026-04-15 09:58 | -29.87563 | 152.06076 | 32198 ft | 471 kts | 210° |
| 2026-04-15 09:59 | -29.93710 | 152.03479 | 32201 ft | 469 kts | 210° |
| 2026-04-15 09:59 | -29.99855 | 152.00877 | 32204 ft | 470 kts | 210° |
| 2026-04-15 10:00 | -30.05955 | 151.98290 | 32212 ft | 469 kts | 210° |
| 2026-04-15 10:00 | -30.12132 | 151.95666 | 32212 ft | 469 kts | 210° |
| 2026-04-15 10:01 | -30.18222 | 151.93077 | 32217 ft | 468 kts | 210° |
| 2026-04-15 10:01 | -30.24340 | 151.90473 | 32216 ft | 469 kts | 210° |
| 2026-04-15 10:02 | -30.30457 | 151.87865 | 32210 ft | 468 kts | 210° |
| 2026-04-15 10:02 | -30.35541 | 151.85693 | 32215 ft | 468 kts | 210° |
| 2026-04-15 10:03 | -30.41661 | 151.83077 | 32221 ft | 468 kts | 210° |
| 2026-04-15 10:03 | -30.47777 | 151.80460 | 32210 ft | 469 kts | 210° |
| 2026-04-15 10:04 | -30.53896 | 151.77840 | 32214 ft | 468 kts | 210° |
| 2026-04-15 10:04 | -30.60015 | 151.75217 | 32212 ft | 468 kts | 210° |
| 2026-04-15 10:05 | -30.66136 | 151.72594 | 32212 ft | 468 kts | 210° |
| 2026-04-15 10:05 | -30.72219 | 151.69983 | 32209 ft | 469 kts | 210° |
| 2026-04-15 10:06 | -30.78339 | 151.67353 | 32211 ft | 469 kts | 210° |
| 2026-04-15 10:06 | -30.84464 | 151.64716 | 32211 ft | 469 kts | 210° |
| 2026-04-15 10:07 | -30.90588 | 151.62077 | 32209 ft | 469 kts | 210° |
| 2026-04-15 10:07 | -30.96703 | 151.59439 | 32212 ft | 468 kts | 210° |
| 2026-04-15 10:08 | -31.02786 | 151.56810 | 32203 ft | 468 kts | 210° |
| 2026-04-15 10:08 | -31.08906 | 151.54160 | 32205 ft | 470 kts | 210° |
| 2026-04-15 10:09 | -31.15038 | 151.51503 | 32200 ft | 470 kts | 210° |
| 2026-04-15 10:09 | -31.21137 | 151.48858 | 32205 ft | 470 kts | 210° |
| 2026-04-15 10:10 | -31.27272 | 151.46191 | 32199 ft | 470 kts | 210° |
| 2026-04-15 10:10 | -31.33408 | 151.43532 | 32191 ft | 472 kts | 208° |
| 2026-04-15 10:10 | -31.36638 | 151.42588 | 32201 ft | 486 kts | 198° |
| 2026-04-15 10:11 | -31.40057 | 151.42294 | 32199 ft | 501 kts | 188° |
| 2026-04-15 10:11 | -31.43584 | 151.42713 | 32195 ft | 517 kts | 178° |
| 2026-04-15 10:11 | -31.47105 | 151.43720 | 32198 ft | 522 kts | 175° |
| 2026-04-15 10:12 | -31.54158 | 151.45819 | 32202 ft | 522 kts | 175° |
| 2026-04-15 10:12 | -31.61188 | 151.47901 | 32203 ft | 521 kts | 175° |
| 2026-04-15 10:13 | -31.68194 | 151.49979 | 32201 ft | 521 kts | 175° |
| 2026-04-15 10:13 | -31.75220 | 151.52067 | 32192 ft | 519 kts | 175° |
| 2026-04-15 10:14 | -31.82234 | 151.54153 | 32193 ft | 520 kts | 175° |
| 2026-04-15 10:14 | -31.89253 | 151.56244 | 32189 ft | 520 kts | 175° |
| 2026-04-15 10:15 | -31.96267 | 151.58338 | 32184 ft | 519 kts | 175° |
| 2026-04-15 10:15 | -32.03268 | 151.60431 | 32179 ft | 518 kts | 175° |
| 2026-04-15 10:16 | -32.10215 | 151.62513 | 32177 ft | 518 kts | 175° |
| 2026-04-15 10:16 | -32.17208 | 151.64607 | 32172 ft | 518 kts | 174° |
| 2026-04-15 10:17 | -32.24182 | 151.66703 | 32172 ft | 516 kts | 174° |
| 2026-04-15 10:17 | -32.31117 | 151.68791 | 32064 ft | 506 kts | 174° |
| 2026-04-15 10:17 | -32.34498 | 151.69815 | 31918 ft | 497 kts | 174° |
| 2026-04-15 10:18 | -32.37588 | 151.70748 | 31578 ft | 493 kts | 174° |
| 2026-04-15 10:18 | -32.40861 | 151.71732 | 31190 ft | 489 kts | 174° |
| 2026-04-15 10:18 | -32.44147 | 151.72719 | 30801 ft | 485 kts | 173° |
| 2026-04-15 10:18 | -32.47410 | 151.73702 | 30462 ft | 481 kts | 173° |
| 2026-04-15 10:19 | -32.50650 | 151.74679 | 30103 ft | 478 kts | 173° |
| 2026-04-15 10:19 | -32.53862 | 151.75649 | 29709 ft | 474 kts | 173° |
| 2026-04-15 10:19 | -32.57050 | 151.76613 | 29295 ft | 471 kts | 172° |
| 2026-04-15 10:19 | -32.60213 | 151.77571 | 28899 ft | 468 kts | 172° |
| 2026-04-15 10:20 | -32.63356 | 151.78524 | 28511 ft | 465 kts | 172° |
| 2026-04-15 10:20 | -32.66476 | 151.79471 | 28123 ft | 461 kts | 172° |
| 2026-04-15 10:20 | -32.69579 | 151.80413 | 27745 ft | 458 kts | 172° |
| 2026-04-15 10:20 | -32.72656 | 151.81349 | 27366 ft | 455 kts | 171° |
| 2026-04-15 10:21 | -32.75648 | 151.82672 | 26962 ft | 462 kts | 159° |
| 2026-04-15 10:21 | -32.78374 | 151.84722 | 26615 ft | 467 kts | 146° |
| 2026-04-15 10:21 | -32.80715 | 151.87418 | 26259 ft | 472 kts | 134° |
| 2026-04-15 10:21 | -32.82536 | 151.90612 | 25919 ft | 474 kts | 121° |
| 2026-04-15 10:22 | -32.83881 | 151.94197 | 25581 ft | 474 kts | 114° |
| 2026-04-15 10:22 | -32.85038 | 151.97856 | 25231 ft | 471 kts | 113° |
| 2026-04-15 10:22 | -32.86195 | 152.01488 | 24894 ft | 467 kts | 114° |
| 2026-04-15 10:22 | -32.87392 | 152.05061 | 24563 ft | 464 kts | 115° |
| 2026-04-15 10:23 | -32.88628 | 152.08606 | 24262 ft | 459 kts | 116° |
| 2026-04-15 10:23 | -32.89865 | 152.12082 | 24166 ft | 455 kts | 116° |
| 2026-04-15 10:23 | -32.91116 | 152.15562 | 24145 ft | 459 kts | 116° |
| 2026-04-15 10:23 | -32.92375 | 152.19055 | 24146 ft | 460 kts | 116° |
| 2026-04-15 10:24 | -32.93633 | 152.22555 | 24149 ft | 459 kts | 116° |
| 2026-04-15 10:24 | -32.94876 | 152.26019 | 24149 ft | 459 kts | 116° |
| 2026-04-15 10:24 | -32.96128 | 152.29514 | 24149 ft | 459 kts | 116° |
| 2026-04-15 10:24 | -32.97381 | 152.33015 | 24148 ft | 459 kts | 116° |
| 2026-04-15 10:25 | -32.98633 | 152.36520 | 24149 ft | 459 kts | 115° |
| 2026-04-15 10:25 | -32.99863 | 152.40040 | 24149 ft | 459 kts | 114° |
| 2026-04-15 10:25 | -33.01085 | 152.43556 | 24148 ft | 459 kts | 115° |
| 2026-04-15 10:25 | -33.02315 | 152.47064 | 24150 ft | 459 kts | 115° |
| 2026-04-15 10:26 | -33.03556 | 152.50567 | 24149 ft | 459 kts | 115° |
| 2026-04-15 10:26 | -33.04720 | 152.53838 | 24150 ft | 459 kts | 115° |
| 2026-04-15 10:26 | -33.05970 | 152.57347 | 24149 ft | 459 kts | 115° |
| 2026-04-15 10:26 | -33.07222 | 152.60859 | 24153 ft | 459 kts | 115° |
| 2026-04-15 10:27 | -33.08470 | 152.64366 | 24145 ft | 459 kts | 115° |
| 2026-04-15 10:27 | -33.09699 | 152.67825 | 24146 ft | 459 kts | 115° |
| 2026-04-15 10:27 | -33.10864 | 152.71369 | 24147 ft | 461 kts | 108° |
| 2026-04-15 10:27 | -33.11419 | 152.75161 | 24144 ft | 465 kts | 93° |
| 2026-04-15 10:28 | -33.11223 | 152.78972 | 24149 ft | 456 kts | 78° |
| 2026-04-15 10:28 | -33.10287 | 152.82525 | 24150 ft | 442 kts | 63° |
| 2026-04-15 10:28 | -33.08674 | 152.85567 | 24148 ft | 428 kts | 46° |
| 2026-04-15 10:28 | -33.06469 | 152.87921 | 24149 ft | 427 kts | 29° |
| 2026-04-15 10:29 | -33.03817 | 152.89465 | 24151 ft | 421 kts | 13° |
| 2026-04-15 10:29 | -33.01037 | 152.90365 | 24145 ft | 418 kts | 9° |
| 2026-04-15 10:29 | -32.98245 | 152.91348 | 24144 ft | 419 kts | 14° |
| 2026-04-15 10:29 | -32.95620 | 152.92565 | 24149 ft | 422 kts | 19° |
| 2026-04-15 10:30 | -32.93841 | 152.93536 | 24148 ft | 424 kts | 21° |
| 2026-04-15 10:30 | -32.91201 | 152.95125 | 24146 ft | 424 kts | 24° |
| 2026-04-15 10:30 | -32.88596 | 152.96780 | 24149 ft | 424 kts | 24° |
| 2026-04-15 10:30 | -32.86006 | 152.98456 | 24149 ft | 425 kts | 24° |
| 2026-04-15 10:31 | -32.83413 | 153.00137 | 24148 ft | 424 kts | 24° |
| 2026-04-15 10:31 | -32.80812 | 153.01817 | 24149 ft | 424 kts | 24° |
| 2026-04-15 10:31 | -32.78220 | 153.03487 | 24149 ft | 424 kts | 24° |
| 2026-04-15 10:31 | -32.75622 | 153.05155 | 24148 ft | 424 kts | 24° |
| 2026-04-15 10:32 | -32.73023 | 153.06822 | 24148 ft | 424 kts | 24° |
| 2026-04-15 10:32 | -32.70428 | 153.08484 | 24146 ft | 424 kts | 24° |
| 2026-04-15 10:32 | -32.67827 | 153.10149 | 24146 ft | 424 kts | 24° |
| 2026-04-15 10:32 | -32.65229 | 153.11804 | 24144 ft | 424 kts | 22° |
| 2026-04-15 10:33 | -32.62489 | 153.13002 | 24154 ft | 417 kts | 8° |
| 2026-04-15 10:33 | -32.59677 | 153.13366 | 24144 ft | 408 kts | 353° |
| 2026-04-15 10:33 | -32.56897 | 153.12933 | 24148 ft | 400 kts | 340° |
| 2026-04-15 10:33 | -32.54329 | 153.11766 | 24147 ft | 392 kts | 327° |
| 2026-04-15 10:34 | -32.52096 | 153.09971 | 24148 ft | 386 kts | 314° |
| 2026-04-15 10:34 | -32.50286 | 153.07663 | 24148 ft | 379 kts | 302° |
| 2026-04-15 10:34 | -32.48971 | 153.04981 | 24147 ft | 375 kts | 290° |
| 2026-04-15 10:34 | -32.48189 | 153.02062 | 24152 ft | 371 kts | 278° |
| 2026-04-15 10:35 | -32.47957 | 152.99024 | 24148 ft | 369 kts | 267° |
| 2026-04-15 10:35 | -32.48279 | 152.96006 | 24148 ft | 369 kts | 256° |
| 2026-04-15 10:35 | -32.49140 | 152.93138 | 24148 ft | 370 kts | 245° |
| 2026-04-15 10:35 | -32.50503 | 152.90551 | 24149 ft | 373 kts | 233° |
| 2026-04-15 10:36 | -32.52324 | 152.88349 | 24148 ft | 377 kts | 221° |
| 2026-04-15 10:36 | -32.54538 | 152.86647 | 24149 ft | 383 kts | 210° |
| 2026-04-15 10:36 | -32.57019 | 152.85565 | 24148 ft | 389 kts | 197° |
| 2026-04-15 10:36 | -32.59691 | 152.84984 | 24147 ft | 391 kts | 194° |
| 2026-04-15 10:37 | -32.62372 | 152.84445 | 24154 ft | 391 kts | 194° |
| 2026-04-15 10:37 | -32.65047 | 152.83897 | 24152 ft | 391 kts | 194° |
| 2026-04-15 10:37 | -32.67743 | 152.83337 | 24150 ft | 391 kts | 194° |
| 2026-04-15 10:37 | -32.70424 | 152.82775 | 24151 ft | 391 kts | 194° |
| 2026-04-15 10:38 | -32.73103 | 152.82211 | 24151 ft | 391 kts | 194° |
| 2026-04-15 10:38 | -32.75786 | 152.81655 | 24154 ft | 391 kts | 194° |
| 2026-04-15 10:38 | -32.78466 | 152.81099 | 24154 ft | 391 kts | 194° |
| 2026-04-15 10:38 | -32.81148 | 152.80537 | 24150 ft | 391 kts | 194° |
| 2026-04-15 10:39 | -32.83830 | 152.79971 | 24148 ft | 391 kts | 194° |
| 2026-04-15 10:39 | -32.86508 | 152.79403 | 24150 ft | 391 kts | 194° |
| 2026-04-15 10:39 | -32.89194 | 152.78833 | 24146 ft | 391 kts | 194° |
| 2026-04-15 10:39 | -32.91843 | 152.78272 | 24150 ft | 391 kts | 193° |
| 2026-04-15 10:40 | -32.94540 | 152.77717 | 24148 ft | 391 kts | 193° |
| 2026-04-15 10:40 | -32.97223 | 152.77162 | 24147 ft | 391 kts | 194° |
| 2026-04-15 10:40 | -32.99907 | 152.76600 | 24150 ft | 391 kts | 194° |
| 2026-04-15 10:40 | -33.02582 | 152.76035 | 24150 ft | 391 kts | 194° |
| 2026-04-15 10:41 | -33.05269 | 152.75464 | 24151 ft | 391 kts | 194° |
| 2026-04-15 10:41 | -33.07950 | 152.74894 | 24153 ft | 391 kts | 194° |
| 2026-04-15 10:41 | -33.10629 | 152.74326 | 24151 ft | 391 kts | 194° |
| 2026-04-15 10:41 | -33.13308 | 152.73758 | 24153 ft | 391 kts | 194° |
| 2026-04-15 10:42 | -33.15986 | 152.73189 | 24152 ft | 391 kts | 194° |
| 2026-04-15 10:42 | -33.18633 | 152.72626 | 24153 ft | 392 kts | 194° |
| 2026-04-15 10:42 | -33.21319 | 152.72057 | 24151 ft | 391 kts | 194° |
| 2026-04-15 10:42 | -33.23996 | 152.71489 | 24150 ft | 391 kts | 194° |
| 2026-04-15 10:43 | -33.26684 | 152.70919 | 24151 ft | 392 kts | 194° |
| 2026-04-15 10:43 | -33.29409 | 152.70624 | 24153 ft | 398 kts | 182° |
| 2026-04-15 10:43 | -33.32172 | 152.71094 | 24152 ft | 405 kts | 168° |
| 2026-04-15 10:43 | -33.34809 | 152.72387 | 24154 ft | 414 kts | 154° |
| 2026-04-15 10:44 | -33.37125 | 152.74466 | 24155 ft | 421 kts | 138° |
| 2026-04-15 10:44 | -33.38952 | 152.77230 | 24154 ft | 427 kts | 122° |
| 2026-04-15 10:44 | -33.40135 | 152.80506 | 24153 ft | 432 kts | 107° |
| 2026-04-15 10:44 | -33.40568 | 152.84016 | 24155 ft | 435 kts | 90° |
| 2026-04-15 10:45 | -33.40218 | 152.87609 | 24152 ft | 435 kts | 74° |
| 2026-04-15 10:45 | -33.39101 | 152.90949 | 24152 ft | 433 kts | 58° |
| 2026-04-15 10:45 | -33.37307 | 152.93810 | 24151 ft | 428 kts | 42° |
| 2026-04-15 10:45 | -33.34989 | 152.95992 | 24152 ft | 422 kts | 26° |
| 2026-04-15 10:46 | -33.32325 | 152.97376 | 24151 ft | 415 kts | 11° |
| 2026-04-15 10:46 | -33.29505 | 152.98055 | 24152 ft | 412 kts | 6° |
| 2026-04-15 10:46 | -33.26681 | 152.98705 | 24151 ft | 413 kts | 7° |
| 2026-04-15 10:46 | -33.23860 | 152.99361 | 24151 ft | 413 kts | 6° |
| 2026-04-15 10:47 | -33.21038 | 152.99994 | 24151 ft | 412 kts | 6° |
| 2026-04-15 10:47 | -33.18218 | 153.00604 | 24150 ft | 412 kts | 6° |
| 2026-04-15 10:47 | -33.15391 | 153.01203 | 24153 ft | 412 kts | 6° |
| 2026-04-15 10:47 | -33.12595 | 153.01791 | 24151 ft | 412 kts | 6° |
| 2026-04-15 10:48 | -33.09775 | 153.02381 | 24147 ft | 412 kts | 6° |
| 2026-04-15 10:48 | -33.06954 | 153.02972 | 24151 ft | 412 kts | 6° |
| 2026-04-15 10:48 | -33.04133 | 153.03563 | 24151 ft | 411 kts | 6° |
| 2026-04-15 10:48 | -33.01308 | 153.04155 | 24152 ft | 412 kts | 6° |
| 2026-04-15 10:49 | -32.98480 | 153.04748 | 24147 ft | 411 kts | 6° |
| 2026-04-15 10:49 | -32.96613 | 153.05139 | 24151 ft | 411 kts | 6° |
| 2026-04-15 10:49 | -32.92846 | 153.05928 | 24150 ft | 411 kts | 6° |
| 2026-04-15 10:49 | -32.90980 | 153.06319 | 24149 ft | 411 kts | 6° |
| 2026-04-15 10:50 | -32.88157 | 153.06911 | 24154 ft | 412 kts | 6° |
| 2026-04-15 10:50 | -32.85341 | 153.07501 | 24153 ft | 411 kts | 6° |
| 2026-04-15 10:50 | -32.82522 | 153.08092 | 24154 ft | 411 kts | 6° |
| 2026-04-15 10:50 | -32.79705 | 153.08682 | 24152 ft | 411 kts | 6° |
| 2026-04-15 10:51 | -32.76886 | 153.09273 | 24150 ft | 411 kts | 6° |
| 2026-04-15 10:51 | -32.74068 | 153.09864 | 24150 ft | 411 kts | 6° |
| 2026-04-15 10:51 | -32.71257 | 153.10454 | 24153 ft | 411 kts | 6° |
| 2026-04-15 10:51 | -32.68433 | 153.11046 | 24151 ft | 411 kts | 6° |
| 2026-04-15 10:52 | -32.65621 | 153.11635 | 24153 ft | 411 kts | 6° |
| 2026-04-15 10:52 | -32.62796 | 153.11985 | 24149 ft | 405 kts | 354° |
| 2026-04-15 10:52 | -32.60043 | 153.11458 | 24152 ft | 397 kts | 338° |
| 2026-04-15 10:52 | -32.57587 | 153.10127 | 24152 ft | 391 kts | 324° |
| 2026-04-15 10:53 | -32.55464 | 153.08161 | 24151 ft | 385 kts | 311° |
| 2026-04-15 10:53 | -32.54055 | 153.06200 | 24154 ft | 382 kts | 302° |
| 2026-04-15 10:53 | -32.53296 | 153.04752 | 24153 ft | 380 kts | 295° |
| 2026-04-15 10:53 | -32.52311 | 153.01873 | 24149 ft | 377 kts | 283° |
| 2026-04-15 10:54 | -32.51889 | 152.98821 | 24151 ft | 375 kts | 271° |
| 2026-04-15 10:54 | -32.52046 | 152.95749 | 24153 ft | 375 kts | 259° |
| 2026-04-15 10:54 | -32.52776 | 152.92789 | 24160 ft | 376 kts | 248° |
| 2026-04-15 10:54 | -32.54049 | 152.90084 | 24153 ft | 378 kts | 236° |
| 2026-04-15 10:55 | -32.55816 | 152.87766 | 24156 ft | 382 kts | 223° |
| 2026-04-15 10:55 | -32.58003 | 152.85962 | 24155 ft | 386 kts | 211° |
| 2026-04-15 10:55 | -32.60515 | 152.84783 | 24154 ft | 392 kts | 198° |
| 2026-04-15 10:55 | -32.63210 | 152.84184 | 24155 ft | 395 kts | 193° |
| 2026-04-15 10:56 | -32.65919 | 152.83658 | 24155 ft | 395 kts | 193° |
| 2026-04-15 10:56 | -32.68635 | 152.83120 | 24158 ft | 395 kts | 193° |
| 2026-04-15 10:56 | -32.71343 | 152.82567 | 24153 ft | 395 kts | 193° |
| 2026-04-15 10:56 | -32.74052 | 152.82003 | 24154 ft | 395 kts | 194° |
| 2026-04-15 10:57 | -32.76753 | 152.81435 | 24151 ft | 394 kts | 194° |
| 2026-04-15 10:57 | -32.82166 | 152.80291 | 24150 ft | 395 kts | 194° |
| 2026-04-15 10:57 | -32.84837 | 152.79727 | 24153 ft | 395 kts | 194° |
| 2026-04-15 10:58 | -32.87541 | 152.79156 | 24155 ft | 394 kts | 194° |
| 2026-04-15 10:58 | -32.90245 | 152.78585 | 24155 ft | 395 kts | 194° |
| 2026-04-15 10:58 | -32.92949 | 152.78015 | 24154 ft | 395 kts | 194° |
| 2026-04-15 10:58 | -32.95654 | 152.77444 | 24154 ft | 395 kts | 194° |
| 2026-04-15 10:59 | -32.98367 | 152.76871 | 24153 ft | 395 kts | 194° |
| 2026-04-15 10:59 | -33.01072 | 152.76300 | 24154 ft | 395 kts | 194° |
| 2026-04-15 10:59 | -33.03777 | 152.75729 | 24155 ft | 394 kts | 194° |
| 2026-04-15 10:59 | -33.06480 | 152.75158 | 24154 ft | 394 kts | 194° |
| 2026-04-15 11:00 | -33.09154 | 152.74593 | 24153 ft | 394 kts | 194° |
| 2026-04-15 11:00 | -33.11854 | 152.74023 | 24156 ft | 394 kts | 194° |
| 2026-04-15 11:00 | -33.14558 | 152.73451 | 24156 ft | 395 kts | 194° |
| 2026-04-15 11:00 | -33.17265 | 152.72879 | 24155 ft | 395 kts | 194° |
| 2026-04-15 11:01 | -33.19969 | 152.72308 | 24154 ft | 395 kts | 194° |
| 2026-04-15 11:01 | -33.22674 | 152.71736 | 24153 ft | 395 kts | 194° |
| 2026-04-15 11:01 | -33.25380 | 152.71165 | 24155 ft | 395 kts | 194° |
| 2026-04-15 11:01 | -33.28093 | 152.70646 | 24154 ft | 397 kts | 188° |
| 2026-04-15 11:02 | -33.30884 | 152.70745 | 24154 ft | 404 kts | 174° |
| 2026-04-15 11:02 | -33.33602 | 152.71683 | 24159 ft | 412 kts | 159° |
| 2026-04-15 11:02 | -33.36086 | 152.73430 | 24157 ft | 418 kts | 144° |
| 2026-04-15 11:02 | -33.38151 | 152.75899 | 24155 ft | 423 kts | 129° |
| 2026-04-15 11:03 | -33.39637 | 152.78952 | 24160 ft | 428 kts | 112° |
| 2026-04-15 11:03 | -33.40409 | 152.82351 | 24155 ft | 431 kts | 97° |
| 2026-04-15 11:03 | -33.40426 | 152.85925 | 24151 ft | 431 kts | 81° |
| 2026-04-15 11:03 | -33.39672 | 152.89379 | 24153 ft | 430 kts | 65° |
| 2026-04-15 11:04 | -33.38201 | 152.92472 | 24152 ft | 427 kts | 49° |
| 2026-04-15 11:04 | -33.36137 | 152.94980 | 24154 ft | 422 kts | 33° |
| 2026-04-15 11:04 | -33.33636 | 152.96755 | 24154 ft | 416 kts | 18° |
| 2026-04-15 11:04 | -33.30888 | 152.97710 | 24154 ft | 409 kts | 5° |
| 2026-04-15 11:05 | -33.28089 | 152.98328 | 24155 ft | 410 kts | 6° |
| 2026-04-15 11:05 | -33.25290 | 152.98984 | 24152 ft | 410 kts | 7° |
| 2026-04-15 11:05 | -33.22479 | 152.99635 | 24151 ft | 410 kts | 7° |
| 2026-04-15 11:05 | -33.19680 | 153.00261 | 24154 ft | 410 kts | 6° |
| 2026-04-15 11:06 | -33.16869 | 153.00871 | 24153 ft | 410 kts | 6° |
| 2026-04-15 11:06 | -33.14053 | 153.01469 | 24151 ft | 410 kts | 6° |
| 2026-04-15 11:06 | -33.11241 | 153.02061 | 24155 ft | 410 kts | 6° |
| 2026-04-15 11:06 | -33.08432 | 153.02650 | 24154 ft | 409 kts | 6° |
| 2026-04-15 11:07 | -33.05624 | 153.03241 | 24152 ft | 410 kts | 6° |
| 2026-04-15 11:07 | -33.02816 | 153.03833 | 24154 ft | 410 kts | 6° |
| 2026-04-15 11:07 | -33.00008 | 153.04424 | 24153 ft | 410 kts | 6° |
| 2026-04-15 11:07 | -32.97237 | 153.05004 | 24152 ft | 410 kts | 6° |
| 2026-04-15 11:08 | -32.94427 | 153.05592 | 24158 ft | 410 kts | 6° |
| 2026-04-15 11:08 | -32.91616 | 153.06181 | 24156 ft | 410 kts | 6° |
| 2026-04-15 11:08 | -32.88806 | 153.06769 | 24156 ft | 410 kts | 6° |
| 2026-04-15 11:08 | -32.85997 | 153.07358 | 24159 ft | 410 kts | 6° |
| 2026-04-15 11:09 | -32.83180 | 153.07949 | 24157 ft | 410 kts | 6° |
| 2026-04-15 11:09 | -32.80371 | 153.08538 | 24157 ft | 410 kts | 6° |
| 2026-04-15 11:09 | -32.77563 | 153.09127 | 24156 ft | 410 kts | 6° |
| 2026-04-15 11:09 | -32.74753 | 153.09716 | 24156 ft | 410 kts | 6° |
| 2026-04-15 11:10 | -32.71940 | 153.10305 | 24158 ft | 410 kts | 6° |
| 2026-04-15 11:10 | -32.69133 | 153.10893 | 24153 ft | 410 kts | 6° |
| 2026-04-15 11:10 | -32.66322 | 153.11483 | 24157 ft | 410 kts | 6° |
| 2026-04-15 11:10 | -32.63500 | 153.11861 | 24157 ft | 406 kts | 355° |
| 2026-04-15 11:11 | -32.60721 | 153.11443 | 24157 ft | 399 kts | 341° |
| 2026-04-15 11:11 | -32.58190 | 153.10265 | 24155 ft | 393 kts | 327° |
| 2026-04-15 11:11 | -32.55980 | 153.08406 | 24158 ft | 387 kts | 314° |
| 2026-04-15 11:11 | -32.54236 | 153.06017 | 24154 ft | 382 kts | 301° |
| 2026-04-15 11:12 | -32.53024 | 153.03235 | 24156 ft | 378 kts | 288° |
| 2026-04-15 11:12 | -32.52395 | 153.00226 | 24156 ft | 376 kts | 275° |
| 2026-04-15 11:12 | -32.52368 | 152.97133 | 24161 ft | 375 kts | 263° |
| 2026-04-15 11:12 | -32.52941 | 152.94119 | 24157 ft | 376 kts | 251° |
| 2026-04-15 11:13 | -32.54069 | 152.91366 | 24155 ft | 377 kts | 238° |
| 2026-04-15 11:13 | -32.55753 | 152.88925 | 24165 ft | 381 kts | 225° |
| 2026-04-15 11:13 | -32.57875 | 152.87034 | 24163 ft | 385 kts | 212° |
| 2026-04-15 11:13 | -32.60320 | 152.85783 | 24156 ft | 391 kts | 199° |
| 2026-04-15 11:14 | -32.63006 | 152.85145 | 24159 ft | 394 kts | 193° |
| 2026-04-15 11:14 | -32.65710 | 152.84626 | 24163 ft | 394 kts | 193° |
| 2026-04-15 11:14 | -32.68417 | 152.84093 | 24161 ft | 394 kts | 193° |
| 2026-04-15 11:14 | -32.71122 | 152.83540 | 24160 ft | 394 kts | 193° |
| 2026-04-15 11:15 | -32.73823 | 152.82973 | 24159 ft | 394 kts | 195° |
| 2026-04-15 11:15 | -32.76507 | 152.82363 | 24164 ft | 393 kts | 195° |
| 2026-04-15 11:15 | -32.79195 | 152.81744 | 24159 ft | 393 kts | 195° |
| 2026-04-15 11:15 | -32.81884 | 152.81146 | 24162 ft | 393 kts | 195° |
| 2026-04-15 11:16 | -32.84573 | 152.80567 | 24160 ft | 393 kts | 195° |
| 2026-04-15 11:16 | -32.87273 | 152.79987 | 24161 ft | 393 kts | 195° |
| 2026-04-15 11:16 | -32.89961 | 152.79404 | 24159 ft | 393 kts | 195° |
| 2026-04-15 11:16 | -32.92661 | 152.78827 | 24159 ft | 393 kts | 195° |
| 2026-04-15 11:17 | -32.95357 | 152.78260 | 24159 ft | 393 kts | 194° |
| 2026-04-15 11:17 | -32.98017 | 152.77707 | 24160 ft | 393 kts | 194° |
| 2026-04-15 11:17 | -33.00709 | 152.77149 | 24161 ft | 393 kts | 194° |
| 2026-04-15 11:17 | -33.03403 | 152.76590 | 24161 ft | 393 kts | 194° |
| 2026-04-15 11:18 | -33.06096 | 152.76029 | 24159 ft | 393 kts | 194° |
| 2026-04-15 11:18 | -33.08792 | 152.75466 | 24158 ft | 393 kts | 194° |
| 2026-04-15 11:18 | -33.11489 | 152.74903 | 24158 ft | 392 kts | 194° |
| 2026-04-15 11:18 | -33.14177 | 152.74340 | 24159 ft | 393 kts | 194° |
| 2026-04-15 11:19 | -33.16873 | 152.73775 | 24157 ft | 393 kts | 194° |
| 2026-04-15 11:19 | -33.19565 | 152.73211 | 24158 ft | 392 kts | 194° |
| 2026-04-15 11:19 | -33.22221 | 152.72655 | 24155 ft | 393 kts | 194° |
| 2026-04-15 11:19 | -33.24912 | 152.72090 | 24156 ft | 393 kts | 194° |
| 2026-04-15 11:20 | -33.27606 | 152.71536 | 24158 ft | 393 kts | 192° |
| 2026-04-15 11:20 | -33.30360 | 152.71472 | 24161 ft | 400 kts | 178° |
| 2026-04-15 11:20 | -33.33098 | 152.72233 | 24161 ft | 408 kts | 163° |
| 2026-04-15 11:20 | -33.35626 | 152.73827 | 24157 ft | 416 kts | 148° |
| 2026-04-15 11:21 | -33.37761 | 152.76192 | 24163 ft | 422 kts | 132° |
| 2026-04-15 11:21 | -33.39331 | 152.79186 | 24162 ft | 428 kts | 115° |
| 2026-04-15 11:21 | -33.40179 | 152.82607 | 24159 ft | 432 kts | 98° |
| 2026-04-15 11:21 | -33.40233 | 152.86199 | 24160 ft | 433 kts | 82° |
| 2026-04-15 11:22 | -33.39486 | 152.89671 | 24162 ft | 433 kts | 65° |
| 2026-04-15 11:22 | -33.37995 | 152.92775 | 24157 ft | 430 kts | 49° |
| 2026-04-15 11:22 | -33.35904 | 152.95243 | 24159 ft | 425 kts | 32° |
| 2026-04-15 11:22 | -33.33322 | 152.96967 | 24160 ft | 418 kts | 16° |
| 2026-04-15 11:23 | -33.30567 | 152.97818 | 24161 ft | 412 kts | 5° |
| 2026-04-15 11:23 | -33.27741 | 152.98437 | 24159 ft | 413 kts | 7° |
| 2026-04-15 11:23 | -33.26487 | 152.98732 | 24156 ft | 413 kts | 7° |
| 2026-04-15 11:24 | -33.24984 | 152.99087 | 24158 ft | 413 kts | 7° |
| 2026-04-15 11:24 | -33.22162 | 152.99732 | 24159 ft | 413 kts | 6° |
| 2026-04-15 11:24 | -33.19333 | 153.00354 | 24159 ft | 413 kts | 6° |
| 2026-04-15 11:24 | -33.16506 | 153.00958 | 24159 ft | 413 kts | 6° |
| 2026-04-15 11:25 | -33.13665 | 153.01556 | 24157 ft | 413 kts | 5° |
| 2026-04-15 11:25 | -33.10874 | 153.02139 | 24158 ft | 413 kts | 5° |
| 2026-04-15 11:25 | -33.08048 | 153.02730 | 24158 ft | 412 kts | 6° |
| 2026-04-15 11:25 | -33.05220 | 153.03322 | 24156 ft | 413 kts | 6° |
| 2026-04-15 11:26 | -33.02387 | 153.03915 | 24159 ft | 413 kts | 6° |
| 2026-04-15 11:26 | -32.99552 | 153.04510 | 24158 ft | 413 kts | 6° |
| 2026-04-15 11:26 | -32.96726 | 153.05104 | 24159 ft | 413 kts | 6° |
| 2026-04-15 11:26 | -32.93899 | 153.05697 | 24163 ft | 413 kts | 6° |
| 2026-04-15 11:27 | -32.91069 | 153.06291 | 24162 ft | 413 kts | 6° |
| 2026-04-15 11:27 | -32.88237 | 153.06885 | 24163 ft | 413 kts | 6° |
| 2026-04-15 11:27 | -32.85406 | 153.07479 | 24161 ft | 413 kts | 6° |
| 2026-04-15 11:27 | -32.82577 | 153.08073 | 24163 ft | 413 kts | 6° |
| 2026-04-15 11:28 | -32.79726 | 153.08441 | 24181 ft | 414 kts | 354° |
| 2026-04-15 11:28 | -32.76863 | 153.07917 | 24324 ft | 421 kts | 339° |
| 2026-04-15 11:28 | -32.74181 | 153.06515 | 24656 ft | 422 kts | 325° |
| 2026-04-15 11:28 | -32.71714 | 153.04629 | 25255 ft | 422 kts | 322° |
| 2026-04-15 11:29 | -32.69206 | 153.02778 | 25828 ft | 427 kts | 325° |
| 2026-04-15 11:29 | -32.66577 | 153.01077 | 26399 ft | 432 kts | 328° |
| 2026-04-15 11:29 | -32.63857 | 152.99502 | 26920 ft | 437 kts | 330° |
| 2026-04-15 11:29 | -32.61079 | 152.97989 | 27119 ft | 440 kts | 330° |
| 2026-04-15 11:30 | -32.58286 | 152.96510 | 27162 ft | 440 kts | 331° |
| 2026-04-15 11:30 | -32.55525 | 152.95062 | 27163 ft | 439 kts | 331° |
| 2026-04-15 11:30 | -32.52721 | 152.93594 | 27162 ft | 439 kts | 331° |
| 2026-04-15 11:30 | -32.49931 | 152.92132 | 27160 ft | 439 kts | 330° |
| 2026-04-15 11:31 | -32.47129 | 152.90662 | 27163 ft | 441 kts | 330° |
| 2026-04-15 11:31 | -32.44273 | 152.89158 | 27165 ft | 458 kts | 330° |
| 2026-04-15 11:31 | -32.41307 | 152.87595 | 27164 ft | 473 kts | 331° |
| 2026-04-15 11:31 | -32.38292 | 152.86013 | 27161 ft | 474 kts | 331° |
| 2026-04-15 11:32 | -32.35269 | 152.84436 | 27166 ft | 473 kts | 331° |
| 2026-04-15 11:32 | -32.32263 | 152.82867 | 27159 ft | 473 kts | 331° |
| 2026-04-15 11:32 | -32.29178 | 152.81479 | 27163 ft | 479 kts | 339° |
| 2026-04-15 11:32 | -32.25870 | 152.80796 | 27165 ft | 487 kts | 351° |
| 2026-04-15 11:33 | -32.22457 | 152.80891 | 27162 ft | 496 kts | 2° |
| 2026-04-15 11:33 | -32.19060 | 152.81776 | 27163 ft | 505 kts | 13° |
| 2026-04-15 11:33 | -32.15771 | 152.83271 | 27163 ft | 508 kts | 18° |
| 2026-04-15 11:33 | -32.12512 | 152.84915 | 27161 ft | 509 kts | 19° |
| 2026-04-15 11:34 | -32.09253 | 152.86562 | 27161 ft | 509 kts | 18° |
| 2026-04-15 11:34 | -32.06028 | 152.88158 | 27161 ft | 509 kts | 18° |
| 2026-04-15 11:34 | -32.02750 | 152.89748 | 27161 ft | 509 kts | 17° |
| 2026-04-15 11:34 | -31.99474 | 152.91318 | 27159 ft | 508 kts | 17° |
| 2026-04-15 11:35 | -31.96197 | 152.92880 | 27161 ft | 509 kts | 17° |
| 2026-04-15 11:35 | -31.92898 | 152.94447 | 27161 ft | 509 kts | 17° |
| 2026-04-15 11:35 | -31.89619 | 152.96004 | 27165 ft | 509 kts | 17° |
| 2026-04-15 11:35 | -31.86329 | 152.97565 | 27161 ft | 509 kts | 17° |
| 2026-04-15 11:36 | -31.84156 | 152.98597 | 27159 ft | 509 kts | 17° |
| 2026-04-15 11:36 | -31.79761 | 153.00680 | 27168 ft | 510 kts | 17° |
| 2026-04-15 11:36 | -31.77576 | 153.01718 | 27158 ft | 510 kts | 17° |
| 2026-04-15 11:36 | -31.74305 | 153.03314 | 27163 ft | 510 kts | 18° |
| 2026-04-15 11:37 | -31.71034 | 153.04935 | 27169 ft | 510 kts | 18° |
| 2026-04-15 11:37 | -31.67764 | 153.06556 | 27165 ft | 510 kts | 18° |
| 2026-04-15 11:37 | -31.64488 | 153.08175 | 27159 ft | 510 kts | 18° |
| 2026-04-15 11:37 | -31.61207 | 153.09790 | 27163 ft | 511 kts | 17° |
| 2026-04-15 11:38 | -31.57928 | 153.11401 | 27164 ft | 511 kts | 17° |
| 2026-04-15 11:38 | -31.54646 | 153.13012 | 27164 ft | 511 kts | 17° |
| 2026-04-15 11:38 | -31.51363 | 153.14621 | 27164 ft | 511 kts | 17° |
| 2026-04-15 11:38 | -31.48079 | 153.16230 | 27164 ft | 511 kts | 17° |
| 2026-04-15 11:39 | -31.44797 | 153.17835 | 27159 ft | 511 kts | 17° |
| 2026-04-15 11:39 | -31.41548 | 153.19423 | 27166 ft | 511 kts | 17° |
| 2026-04-15 11:39 | -31.38264 | 153.21027 | 27161 ft | 512 kts | 17° |
| 2026-04-15 11:39 | -31.34975 | 153.22633 | 27161 ft | 512 kts | 17° |
| 2026-04-15 11:40 | -31.31687 | 153.24235 | 27159 ft | 512 kts | 17° |
| 2026-04-15 11:40 | -31.28381 | 153.25808 | 27161 ft | 512 kts | 16° |
| 2026-04-15 11:40 | -31.25075 | 153.27359 | 27163 ft | 512 kts | 16° |
| 2026-04-15 11:40 | -31.21773 | 153.28909 | 27159 ft | 512 kts | 16° |
| 2026-04-15 11:41 | -31.18472 | 153.30465 | 27160 ft | 512 kts | 16° |
| 2026-04-15 11:41 | -31.15168 | 153.32023 | 27159 ft | 512 kts | 16° |
| 2026-04-15 11:41 | -31.11859 | 153.33582 | 27157 ft | 512 kts | 16° |
| 2026-04-15 11:41 | -31.08555 | 153.35121 | 27156 ft | 512 kts | 15° |
| 2026-04-15 11:42 | -31.05236 | 153.36655 | 27159 ft | 512 kts | 15° |
| 2026-04-15 11:42 | -31.01923 | 153.38179 | 27158 ft | 512 kts | 15° |
| 2026-04-15 11:42 | -30.98602 | 153.39715 | 27157 ft | 512 kts | 15° |
| 2026-04-15 11:42 | -30.96524 | 153.40683 | 27159 ft | 512 kts | 15° |
| 2026-04-15 11:43 | -30.93237 | 153.42220 | 27158 ft | 512 kts | 15° |
| 2026-04-15 11:43 | -30.89929 | 153.43772 | 27158 ft | 512 kts | 15° |
| 2026-04-15 11:43 | -30.86665 | 153.45305 | 27156 ft | 512 kts | 15° |
| 2026-04-15 11:43 | -30.83357 | 153.46857 | 27162 ft | 512 kts | 15° |
| 2026-04-15 11:44 | -30.80049 | 153.48408 | 27157 ft | 513 kts | 15° |
| 2026-04-15 11:44 | -30.76815 | 153.50237 | 27158 ft | 521 kts | 25° |
| 2026-04-15 11:44 | -30.73863 | 153.52726 | 27163 ft | 530 kts | 36° |
| 2026-04-15 11:44 | -30.71285 | 153.55824 | 27156 ft | 537 kts | 47° |
| 2026-04-15 11:45 | -30.69120 | 153.59396 | 27152 ft | 541 kts | 54° |
| 2026-04-15 11:45 | -30.67141 | 153.63130 | 27157 ft | 542 kts | 55° |
| 2026-04-15 11:45 | -30.65196 | 153.66813 | 27156 ft | 542 kts | 54° |
| 2026-04-15 11:45 | -30.63182 | 153.70516 | 27155 ft | 542 kts | 53° |
| 2026-04-15 11:46 | -30.61129 | 153.74189 | 27163 ft | 542 kts | 53° |
| 2026-04-15 11:46 | -30.59056 | 153.77838 | 27165 ft | 542 kts | 53° |
| 2026-04-15 11:46 | -30.56966 | 153.81487 | 27156 ft | 542 kts | 52° |
| 2026-04-15 11:46 | -30.54878 | 153.85122 | 27163 ft | 542 kts | 52° |
| 2026-04-15 11:47 | -30.52780 | 153.88767 | 27162 ft | 542 kts | 52° |
| 2026-04-15 11:47 | -30.50681 | 153.92402 | 27156 ft | 542 kts | 52° |
| 2026-04-15 11:47 | -30.48582 | 153.96039 | 27157 ft | 543 kts | 52° |
| 2026-04-15 11:47 | -30.46487 | 153.99670 | 27163 ft | 543 kts | 52° |
| 2026-04-15 11:48 | -30.44380 | 154.03323 | 27155 ft | 543 kts | 52° |
| 2026-04-15 11:48 | -30.42279 | 154.06963 | 27153 ft | 544 kts | 52° |
| 2026-04-15 11:48 | -30.40173 | 154.10608 | 27156 ft | 544 kts | 52° |
| 2026-04-15 11:48 | -30.38095 | 154.14203 | 27155 ft | 544 kts | 52° |
| 2026-04-15 11:49 | -30.35985 | 154.17848 | 27166 ft | 544 kts | 52° |
| 2026-04-15 11:49 | -30.33875 | 154.21490 | 27162 ft | 544 kts | 52° |
| 2026-04-15 11:49 | -30.31762 | 154.25133 | 27164 ft | 545 kts | 52° |
| 2026-04-15 11:49 | -30.29646 | 154.28779 | 27167 ft | 545 kts | 52° |
| 2026-04-15 11:50 | -30.27533 | 154.32415 | 27161 ft | 545 kts | 52° |
| 2026-04-15 11:50 | -30.25412 | 154.36061 | 27156 ft | 545 kts | 52° |
| 2026-04-15 11:50 | -30.23289 | 154.39708 | 27157 ft | 545 kts | 52° |
| 2026-04-15 11:50 | -30.21170 | 154.43345 | 27158 ft | 545 kts | 52° |
| 2026-04-15 11:51 | -30.19045 | 154.46989 | 27162 ft | 546 kts | 52° |
| 2026-04-15 11:51 | -30.16944 | 154.50589 | 27162 ft | 546 kts | 52° |
| 2026-04-15 11:51 | -30.14813 | 154.54235 | 27161 ft | 546 kts | 52° |
| 2026-04-15 11:51 | -30.12686 | 154.57873 | 27161 ft | 546 kts | 52° |
| 2026-04-15 11:52 | -30.10555 | 154.61513 | 27160 ft | 546 kts | 52° |
| 2026-04-15 11:52 | -30.08422 | 154.65152 | 27162 ft | 547 kts | 52° |
| 2026-04-15 11:52 | -30.06285 | 154.68796 | 27162 ft | 546 kts | 52° |
| 2026-04-15 11:52 | -30.04176 | 154.72389 | 27159 ft | 546 kts | 52° |
| 2026-04-15 11:53 | -30.02045 | 154.76017 | 27159 ft | 547 kts | 52° |
| 2026-04-15 11:53 | -29.99909 | 154.79649 | 27160 ft | 547 kts | 52° |
| 2026-04-15 11:53 | -29.97771 | 154.83280 | 27160 ft | 547 kts | 52° |
| 2026-04-15 11:53 | -29.95631 | 154.86912 | 27159 ft | 547 kts | 52° |
| 2026-04-15 11:54 | -29.93486 | 154.90549 | 27162 ft | 547 kts | 52° |
| 2026-04-15 11:54 | -29.91346 | 154.94174 | 27160 ft | 547 kts | 52° |
| 2026-04-15 11:54 | -29.89081 | 154.97690 | 27160 ft | 542 kts | 44° |
| 2026-04-15 11:54 | -29.86374 | 155.00674 | 27160 ft | 534 kts | 32° |
| 2026-04-15 11:55 | -29.83304 | 155.03002 | 27164 ft | 524 kts | 21° |
| 2026-04-15 11:55 | -29.79981 | 155.04609 | 27165 ft | 512 kts | 9° |
| 2026-04-15 11:55 | -29.76550 | 155.05448 | 27166 ft | 499 kts | 358° |
| 2026-04-15 11:55 | -29.73164 | 155.05515 | 27168 ft | 486 kts | 346° |
| 2026-04-15 11:56 | -29.69918 | 155.04811 | 27166 ft | 463 kts | 334° |
| 2026-04-15 11:56 | -29.67043 | 155.03415 | 27161 ft | 436 kts | 322° |
| 2026-04-15 11:56 | -29.64667 | 155.01444 | 27162 ft | 409 kts | 309° |
| 2026-04-15 11:56 | -29.62878 | 154.99027 | 27164 ft | 385 kts | 296° |
| 2026-04-15 11:57 | -29.61720 | 154.96342 | 27163 ft | 366 kts | 287° |
| 2026-04-15 11:57 | -29.60309 | 154.91925 | 27164 ft | 347 kts | 288° |
| 2026-04-15 11:57 | -29.59277 | 154.89403 | 27165 ft | 349 kts | 292° |
| 2026-04-15 11:58 | -29.58127 | 154.86912 | 27164 ft | 355 kts | 294° |
| 2026-04-15 11:58 | -29.56925 | 154.84429 | 27163 ft | 355 kts | 294° |
| 2026-04-15 11:58 | -29.55720 | 154.81966 | 27167 ft | 354 kts | 294° |
| 2026-04-15 11:58 | -29.54516 | 154.79499 | 27161 ft | 353 kts | 294° |
| 2026-04-15 11:59 | -29.53318 | 154.77032 | 27160 ft | 354 kts | 294° |
| 2026-04-15 11:59 | -29.52122 | 154.74562 | 27161 ft | 354 kts | 294° |
| 2026-04-15 11:59 | -29.50942 | 154.72120 | 27162 ft | 354 kts | 294° |
| 2026-04-15 11:59 | -29.49748 | 154.69652 | 27162 ft | 354 kts | 294° |
| 2026-04-15 12:00 | -29.48556 | 154.67186 | 27160 ft | 354 kts | 294° |
| 2026-04-15 12:00 | -29.47443 | 154.64670 | 27161 ft | 350 kts | 288° |
| 2026-04-15 12:00 | -29.46683 | 154.62039 | 27162 ft | 346 kts | 280° |
| 2026-04-15 12:00 | -29.46313 | 154.59323 | 27162 ft | 344 kts | 272° |
| 2026-04-15 12:01 | -29.46340 | 154.56584 | 27156 ft | 343 kts | 264° |
| 2026-04-15 12:01 | -29.46760 | 154.53892 | 27158 ft | 344 kts | 256° |
| 2026-04-15 12:01 | -29.47566 | 154.51302 | 27159 ft | 346 kts | 248° |
| 2026-04-15 12:01 | -29.48748 | 154.48879 | 27159 ft | 350 kts | 240° |
| 2026-04-15 12:02 | -29.50275 | 154.46683 | 27157 ft | 355 kts | 233° |
| 2026-04-15 12:02 | -29.52130 | 154.44774 | 27162 ft | 363 kts | 223° |
| 2026-04-15 12:02 | -29.54316 | 154.43264 | 27160 ft | 372 kts | 213° |
| 2026-04-15 12:02 | -29.56771 | 154.42189 | 27159 ft | 382 kts | 204° |
| 2026-04-15 12:03 | -29.59424 | 154.41626 | 27164 ft | 394 kts | 194° |
| 2026-04-15 12:03 | -29.62209 | 154.41642 | 27158 ft | 408 kts | 183° |
| 2026-04-15 12:03 | -29.65030 | 154.42303 | 27158 ft | 421 kts | 171° |
| 2026-04-15 12:03 | -29.67764 | 154.43648 | 27158 ft | 436 kts | 159° |
| 2026-04-15 12:04 | -29.70249 | 154.45660 | 27162 ft | 449 kts | 145° |
| 2026-04-15 12:04 | -29.72384 | 154.48342 | 27162 ft | 462 kts | 131° |
| 2026-04-15 12:04 | -29.73993 | 154.51578 | 27162 ft | 471 kts | 118° |
| 2026-04-15 12:04 | -29.75329 | 154.55022 | 27161 ft | 471 kts | 119° |
| 2026-04-15 12:05 | -29.76709 | 154.58444 | 27162 ft | 471 kts | 119° |
| 2026-04-15 12:05 | -29.78079 | 154.61874 | 27163 ft | 471 kts | 119° |
| 2026-04-15 12:05 | -29.79426 | 154.65313 | 27164 ft | 471 kts | 118° |
| 2026-04-15 12:05 | -29.80757 | 154.68753 | 27163 ft | 471 kts | 118° |
| 2026-04-15 12:06 | -29.82087 | 154.72216 | 27166 ft | 471 kts | 118° |
| 2026-04-15 12:06 | -29.83410 | 154.75671 | 27158 ft | 472 kts | 118° |
| 2026-04-15 12:06 | -29.84732 | 154.79121 | 27160 ft | 472 kts | 118° |
| 2026-04-15 12:06 | -29.86057 | 154.82578 | 27165 ft | 472 kts | 118° |
| 2026-04-15 12:07 | -29.87383 | 154.86034 | 27168 ft | 472 kts | 118° |
| 2026-04-15 12:07 | -29.88713 | 154.89496 | 27165 ft | 472 kts | 118° |
| 2026-04-15 12:07 | -29.90021 | 154.92901 | 27165 ft | 472 kts | 118° |
| 2026-04-15 12:07 | -29.91355 | 154.96369 | 27167 ft | 471 kts | 118° |
| 2026-04-15 12:08 | -29.92683 | 154.99821 | 27167 ft | 472 kts | 118° |
| 2026-04-15 12:08 | -29.94016 | 155.03282 | 27165 ft | 472 kts | 118° |
| 2026-04-15 12:08 | -29.95299 | 155.06770 | 27166 ft | 475 kts | 112° |
| 2026-04-15 12:08 | -29.96013 | 155.10508 | 27172 ft | 481 kts | 97° |
| 2026-04-15 12:09 | -29.95971 | 155.14363 | 27169 ft | 483 kts | 81° |
| 2026-04-15 12:09 | -29.95173 | 155.18110 | 27167 ft | 480 kts | 66° |
| 2026-04-15 12:09 | -29.93661 | 155.21497 | 27165 ft | 473 kts | 49° |
| 2026-04-15 12:09 | -29.91513 | 155.24307 | 27171 ft | 461 kts | 33° |
| 2026-04-15 12:10 | -29.88911 | 155.26361 | 27167 ft | 447 kts | 18° |
| 2026-04-15 12:10 | -29.86075 | 155.27685 | 27168 ft | 434 kts | 6° |
| 2026-04-15 12:10 | -29.83164 | 155.28332 | 27165 ft | 420 kts | 354° |
| 2026-04-15 12:10 | -29.80326 | 155.28333 | 27165 ft | 407 kts | 343° |
| 2026-04-15 12:11 | -29.77594 | 155.27730 | 27166 ft | 393 kts | 333° |
| 2026-04-15 12:11 | -29.75097 | 155.26588 | 27169 ft | 382 kts | 322° |
| 2026-04-15 12:11 | -29.72885 | 155.24982 | 27164 ft | 371 kts | 313° |
| 2026-04-15 12:11 | -29.71010 | 155.23001 | 27168 ft | 362 kts | 304° |
| 2026-04-15 12:12 | -29.69500 | 155.20724 | 27164 ft | 354 kts | 295° |
| 2026-04-15 12:12 | -29.68371 | 155.18231 | 27163 ft | 349 kts | 288° |
| 2026-04-15 12:12 | -29.67413 | 155.15662 | 27168 ft | 349 kts | 288° |
| 2026-04-15 12:12 | -29.66429 | 155.13097 | 27168 ft | 350 kts | 289° |
| 2026-04-15 12:13 | -29.65432 | 155.10540 | 27165 ft | 350 kts | 289° |
| 2026-04-15 12:13 | -29.64444 | 155.08022 | 27163 ft | 350 kts | 289° |
| 2026-04-15 12:13 | -29.63441 | 155.05467 | 27163 ft | 350 kts | 289° |
| 2026-04-15 12:13 | -29.62440 | 155.02917 | 27164 ft | 350 kts | 289° |
| 2026-04-15 12:14 | -29.61440 | 155.00367 | 27164 ft | 350 kts | 289° |
| 2026-04-15 12:14 | -29.60439 | 154.97811 | 27165 ft | 350 kts | 289° |
| 2026-04-15 12:14 | -29.59439 | 154.95255 | 27163 ft | 350 kts | 289° |
| 2026-04-15 12:14 | -29.58443 | 154.92707 | 27165 ft | 350 kts | 289° |
| 2026-04-15 12:15 | -29.57443 | 154.90149 | 27165 ft | 350 kts | 289° |
| 2026-04-15 12:15 | -29.56448 | 154.87600 | 27165 ft | 350 kts | 289° |
| 2026-04-15 12:15 | -29.55452 | 154.85048 | 27165 ft | 350 kts | 289° |
| 2026-04-15 12:15 | -29.54457 | 154.82497 | 27164 ft | 350 kts | 289° |
| 2026-04-15 12:16 | -29.53463 | 154.79945 | 27163 ft | 350 kts | 289° |
| 2026-04-15 12:16 | -29.52468 | 154.77393 | 27159 ft | 351 kts | 289° |
| 2026-04-15 12:16 | -29.51457 | 154.74775 | 27161 ft | 367 kts | 289° |
| 2026-04-15 12:16 | -29.50424 | 154.72053 | 27160 ft | 384 kts | 289° |
| 2026-04-15 12:17 | -29.49166 | 154.69260 | 27160 ft | 406 kts | 298° |
| 2026-04-15 12:17 | -29.47309 | 154.66683 | 27162 ft | 431 kts | 308° |
| 2026-04-15 12:17 | -29.45065 | 154.64280 | 27157 ft | 446 kts | 312° |
| 2026-04-15 12:17 | -29.42693 | 154.61969 | 27158 ft | 447 kts | 314° |
| 2026-04-15 12:18 | -29.40329 | 154.59724 | 27160 ft | 446 kts | 314° |
| 2026-04-15 12:18 | -29.37941 | 154.57446 | 27158 ft | 446 kts | 313° |
| 2026-04-15 12:18 | -29.35570 | 154.55164 | 27159 ft | 445 kts | 313° |
| 2026-04-15 12:18 | -29.33200 | 154.52866 | 27157 ft | 445 kts | 313° |
| 2026-04-15 12:19 | -29.30837 | 154.50568 | 27159 ft | 445 kts | 313° |
| 2026-04-15 12:19 | -29.28480 | 154.48273 | 27160 ft | 445 kts | 313° |
| 2026-04-15 12:19 | -29.26123 | 154.45976 | 27156 ft | 444 kts | 313° |
| 2026-04-15 12:19 | -29.23771 | 154.43680 | 27155 ft | 444 kts | 313° |
| 2026-04-15 12:20 | -29.21420 | 154.41386 | 27160 ft | 444 kts | 313° |
| 2026-04-15 12:20 | -29.19068 | 154.39097 | 27161 ft | 444 kts | 313° |
| 2026-04-15 12:20 | -29.16715 | 154.36811 | 27159 ft | 444 kts | 313° |
| 2026-04-15 12:20 | -29.14389 | 154.34553 | 27159 ft | 444 kts | 313° |
| 2026-04-15 12:21 | -29.12030 | 154.32265 | 27151 ft | 443 kts | 313° |
| 2026-04-15 12:21 | -29.09677 | 154.29985 | 27159 ft | 443 kts | 313° |
| 2026-04-15 12:21 | -29.07322 | 154.27704 | 27155 ft | 443 kts | 313° |
| 2026-04-15 12:21 | -29.04961 | 154.25418 | 27158 ft | 443 kts | 313° |
| 2026-04-15 12:22 | -29.02608 | 154.23143 | 27155 ft | 443 kts | 313° |
| 2026-04-15 12:22 | -29.00257 | 154.20870 | 27156 ft | 443 kts | 313° |
| 2026-04-15 12:22 | -28.97899 | 154.18592 | 27152 ft | 443 kts | 313° |
| 2026-04-15 12:22 | -28.95569 | 154.16343 | 27154 ft | 443 kts | 313° |
| 2026-04-15 12:23 | -28.93211 | 154.14063 | 27149 ft | 443 kts | 312° |
| 2026-04-15 12:23 | -28.90886 | 154.11769 | 27151 ft | 443 kts | 311° |
| 2026-04-15 12:23 | -28.88551 | 154.09470 | 27151 ft | 443 kts | 312° |
| 2026-04-15 12:23 | -28.86205 | 154.07191 | 27148 ft | 444 kts | 313° |
| 2026-04-15 12:24 | -28.83847 | 154.04920 | 27149 ft | 443 kts | 313° |
| 2026-04-15 12:24 | -28.82285 | 154.03421 | 27150 ft | 443 kts | 313° |
| 2026-04-15 12:24 | -28.79919 | 154.01153 | 27151 ft | 444 kts | 313° |
| 2026-04-15 12:24 | -28.77556 | 153.98890 | 27151 ft | 444 kts | 313° |
| 2026-04-15 12:25 | -28.75191 | 153.96626 | 27153 ft | 444 kts | 313° |
| 2026-04-15 12:25 | -28.72827 | 153.94363 | 27152 ft | 444 kts | 313° |
| 2026-04-15 12:25 | -28.70465 | 153.92103 | 27155 ft | 444 kts | 313° |
| 2026-04-15 12:25 | -28.68085 | 153.89851 | 27149 ft | 445 kts | 315° |
| 2026-04-15 12:26 | -28.65558 | 153.87786 | 27156 ft | 450 kts | 319° |
| 2026-04-15 12:26 | -28.62959 | 153.85794 | 27152 ft | 450 kts | 319° |
| 2026-04-15 12:26 | -28.60367 | 153.83798 | 27151 ft | 450 kts | 318° |
| 2026-04-15 12:26 | -28.57784 | 153.81790 | 27153 ft | 449 kts | 318° |
| 2026-04-15 12:27 | -28.55238 | 153.79801 | 27156 ft | 449 kts | 318° |
| 2026-04-15 12:27 | -28.52657 | 153.77795 | 27152 ft | 450 kts | 318° |
| 2026-04-15 12:27 | -28.50071 | 153.75795 | 27151 ft | 450 kts | 318° |
| 2026-04-15 12:27 | -28.47474 | 153.73793 | 27145 ft | 450 kts | 317° |
| 2026-04-15 12:28 | -28.44903 | 153.71770 | 27148 ft | 449 kts | 317° |
| 2026-04-15 12:28 | -28.42332 | 153.69746 | 27170 ft | 450 kts | 317° |
| 2026-04-15 12:28 | -28.39747 | 153.67733 | 27166 ft | 450 kts | 317° |
| 2026-04-15 12:28 | -28.37154 | 153.65733 | 27175 ft | 450 kts | 318° |
| 2026-04-15 12:29 | -28.34563 | 153.63742 | 27176 ft | 450 kts | 318° |
| 2026-04-15 12:29 | -28.31965 | 153.61753 | 27181 ft | 450 kts | 318° |
| 2026-04-15 12:29 | -28.29362 | 153.59765 | 27178 ft | 450 kts | 318° |
| 2026-04-15 12:29 | -28.26765 | 153.57785 | 27184 ft | 450 kts | 318° |
| 2026-04-15 12:30 | -28.24161 | 153.55799 | 27188 ft | 450 kts | 318° |
| 2026-04-15 12:30 | -28.21558 | 153.53816 | 27186 ft | 450 kts | 318° |
| 2026-04-15 12:30 | -28.19048 | 153.51717 | 27187 ft | 445 kts | 312° |
| 2026-04-15 12:30 | -28.16857 | 153.49279 | 27181 ft | 438 kts | 305° |
| 2026-04-15 12:31 | -28.15014 | 153.46555 | 27180 ft | 433 kts | 298° |
| 2026-04-15 12:31 | -28.13491 | 153.43672 | 27181 ft | 431 kts | 295° |
| 2026-04-15 12:31 | -28.11978 | 153.40739 | 27182 ft | 431 kts | 296° |
| 2026-04-15 12:31 | -28.10456 | 153.37811 | 27181 ft | 431 kts | 296° |
| 2026-04-15 12:32 | -28.08930 | 153.34886 | 27177 ft | 431 kts | 296° |
| 2026-04-15 12:32 | -28.07405 | 153.31966 | 27171 ft | 430 kts | 296° |
| 2026-04-15 12:32 | -28.05882 | 153.29052 | 27181 ft | 431 kts | 296° |
| 2026-04-15 12:32 | -28.04354 | 153.26128 | 27181 ft | 430 kts | 296° |
| 2026-04-15 12:33 | -28.02829 | 153.23210 | 27182 ft | 431 kts | 296° |
| 2026-04-15 12:33 | -28.01304 | 153.20292 | 27179 ft | 430 kts | 296° |
| 2026-04-15 12:33 | -27.99794 | 153.17405 | 27179 ft | 430 kts | 296° |
| 2026-04-15 12:33 | -27.98271 | 153.14496 | 27177 ft | 430 kts | 296° |
| 2026-04-15 12:34 | -27.96743 | 153.11579 | 27175 ft | 430 kts | 296° |
| 2026-04-15 12:34 | -27.95217 | 153.08666 | 27179 ft | 430 kts | 296° |
| 2026-04-15 12:34 | -27.93694 | 153.05763 | 27177 ft | 430 kts | 296° |
| 2026-04-15 12:34 | -27.92164 | 153.02847 | 27181 ft | 430 kts | 296° |
| 2026-04-15 12:35 | -27.90632 | 152.99928 | 27182 ft | 430 kts | 296° |
| 2026-04-15 12:35 | -27.89109 | 152.97026 | 27177 ft | 430 kts | 296° |
| 2026-04-15 12:35 | -27.87602 | 152.94159 | 27140 ft | 428 kts | 296° |
| 2026-04-15 12:35 | -27.86083 | 152.91270 | 26793 ft | 427 kts | 296° |
| 2026-04-15 12:36 | -27.84565 | 152.88385 | 26301 ft | 427 kts | 296° |
| 2026-04-15 12:36 | -27.83059 | 152.85524 | 25918 ft | 418 kts | 296° |
| 2026-04-15 12:36 | -27.81575 | 152.82711 | 25112 ft | 412 kts | 297° |
| 2026-04-15 12:36 | -27.80107 | 152.79920 | 24220 ft | 415 kts | 297° |
| 2026-04-15 12:37 | -27.78631 | 152.77117 | 23750 ft | 414 kts | 297° |
| 2026-04-15 12:37 | -27.77164 | 152.74334 | 23230 ft | 411 kts | 297° |
| 2026-04-15 12:37 | -27.75702 | 152.71566 | 22662 ft | 409 kts | 297° |
| 2026-04-15 12:37 | -27.74250 | 152.68817 | 22107 ft | 408 kts | 298° |
| 2026-04-15 12:38 | -27.72798 | 152.66069 | 21535 ft | 406 kts | 297° |
| 2026-04-15 12:38 | -27.71379 | 152.63319 | 20954 ft | 405 kts | 296° |
| 2026-04-15 12:38 | -27.69971 | 152.60569 | 20376 ft | 404 kts | 297° |
| 2026-04-15 12:38 | -27.68507 | 152.57868 | 19819 ft | 403 kts | 298° |
| 2026-04-15 12:39 | -27.67067 | 152.55204 | 19269 ft | 402 kts | 298° |
| 2026-04-15 12:39 | -27.65653 | 152.52488 | 18728 ft | 401 kts | 297° |
| 2026-04-15 12:39 | -27.64247 | 152.49782 | 18147 ft | 399 kts | 298° |
| 2026-04-15 12:39 | -27.63023 | 152.46990 | 17530 ft | 396 kts | 287° |
| 2026-04-15 12:40 | -27.62535 | 152.43969 | 16923 ft | 390 kts | 270° |
| 2026-04-15 12:40 | -27.62864 | 152.41013 | 16601 ft | 371 kts | 255° |
| 2026-04-15 12:40 | -27.63577 | 152.38267 | 16452 ft | 358 kts | 253° |
| 2026-04-15 12:40 | -27.64245 | 152.35612 | 16327 ft | 345 kts | 255° |
| 2026-04-15 12:41 | -27.64780 | 152.33022 | 16213 ft | 333 kts | 258° |
| 2026-04-15 12:41 | -27.65209 | 152.30504 | 16113 ft | 321 kts | 259° |
| 2026-04-15 12:41 | -27.65573 | 152.28062 | 16014 ft | 309 kts | 261° |
| 2026-04-15 12:41 | -27.65944 | 152.25708 | 15764 ft | 303 kts | 253° |
| 2026-04-15 12:42 | -27.66947 | 152.23646 | 15521 ft | 304 kts | 228° |
| 2026-04-15 12:42 | -27.68672 | 152.22233 | 15290 ft | 312 kts | 204° |
| 2026-04-15 12:42 | -27.70804 | 152.21747 | 15053 ft | 316 kts | 180° |
| 2026-04-15 12:42 | -27.72935 | 152.22296 | 14814 ft | 318 kts | 156° |
| 2026-04-15 12:43 | -27.74709 | 152.23801 | 14588 ft | 323 kts | 131° |
| 2026-04-15 12:43 | -27.75830 | 152.26000 | 14343 ft | 326 kts | 112° |
| 2026-04-15 12:43 | -27.76249 | 152.28493 | 14117 ft | 324 kts | 93° |
| 2026-04-15 12:43 | -27.75938 | 152.31006 | 13891 ft | 324 kts | 73° |
| 2026-04-15 12:44 | -27.74918 | 152.33260 | 13644 ft | 323 kts | 53° |
| 2026-04-15 12:44 | -27.73382 | 152.35050 | 13406 ft | 321 kts | 42° |
| 2026-04-15 12:44 | -27.71671 | 152.36657 | 13151 ft | 319 kts | 39° |
| 2026-04-15 12:44 | -27.69922 | 152.38216 | 12899 ft | 318 kts | 39° |
| 2026-04-15 12:45 | -27.68182 | 152.39745 | 12652 ft | 316 kts | 39° |
| 2026-04-15 12:45 | -27.66571 | 152.41416 | 12400 ft | 314 kts | 51° |
| 2026-04-15 12:45 | -27.65360 | 152.43459 | 12141 ft | 313 kts | 65° |
| 2026-04-15 12:45 | -27.64565 | 152.45735 | 11904 ft | 311 kts | 75° |
| 2026-04-15 12:46 | -27.64043 | 152.48097 | 11661 ft | 309 kts | 80° |
| 2026-04-15 12:46 | -27.63805 | 152.50487 | 11418 ft | 305 kts | 97° |
| 2026-04-15 12:46 | -27.64410 | 152.52713 | 11179 ft | 301 kts | 123° |
| 2026-04-15 12:46 | -27.65789 | 152.54450 | 10944 ft | 297 kts | 147° |
| 2026-04-15 12:47 | -27.67650 | 152.55388 | 10703 ft | 294 kts | 170° |
| 2026-04-15 12:47 | -27.69673 | 152.55402 | 10464 ft | 292 kts | 193° |
| 2026-04-15 12:47 | -27.71525 | 152.54501 | 10244 ft | 292 kts | 216° |
| 2026-04-15 12:47 | -27.72909 | 152.52851 | 10003 ft | 292 kts | 238° |
| 2026-04-15 12:48 | -27.73612 | 152.50704 | 9739 ft | 292 kts | 259° |
| 2026-04-15 12:48 | -27.73935 | 152.48478 | 9503 ft | 290 kts | 259° |
| 2026-04-15 12:48 | -27.74261 | 152.46241 | 9251 ft | 288 kts | 259° |
| 2026-04-15 12:48 | -27.74582 | 152.43991 | 8997 ft | 286 kts | 260° |
| 2026-04-15 12:49 | -27.74891 | 152.41788 | 8742 ft | 284 kts | 260° |
| 2026-04-15 12:49 | -27.75192 | 152.39624 | 8508 ft | 282 kts | 260° |
| 2026-04-15 12:49 | -27.75494 | 152.37443 | 8262 ft | 280 kts | 260° |
| 2026-04-15 12:49 | -27.75793 | 152.35279 | 8021 ft | 278 kts | 260° |
| 2026-04-15 12:50 | -27.76091 | 152.33133 | 7779 ft | 276 kts | 260° |
| 2026-04-15 12:50 | -27.76329 | 152.30985 | 7528 ft | 274 kts | 269° |
| 2026-04-15 12:50 | -27.75997 | 152.28878 | 7297 ft | 275 kts | 290° |
| 2026-04-15 12:50 | -27.74992 | 152.27050 | 7056 ft | 276 kts | 312° |
| 2026-04-15 12:51 | -27.73460 | 152.25800 | 6827 ft | 278 kts | 334° |
| 2026-04-15 12:51 | -27.71588 | 152.25287 | 6596 ft | 280 kts | 356° |
| 2026-04-15 12:51 | -27.69663 | 152.25619 | 6349 ft | 283 kts | 19° |
| 2026-04-15 12:51 | -27.67982 | 152.26771 | 6092 ft | 283 kts | 43° |
| 2026-04-15 12:52 | -27.66830 | 152.28557 | 5855 ft | 284 kts | 66° |
| 2026-04-15 12:52 | -27.66346 | 152.30692 | 5608 ft | 280 kts | 82° |
| 2026-04-15 12:52 | -27.66068 | 152.32871 | 5350 ft | 279 kts | 82° |
| 2026-04-15 12:52 | -27.65777 | 152.35025 | 5162 ft | 276 kts | 81° |
| 2026-04-15 12:53 | -27.65477 | 152.37166 | 5112 ft | 277 kts | 81° |
| 2026-04-15 12:53 | -27.65173 | 152.39314 | 5109 ft | 278 kts | 81° |
| 2026-04-15 12:53 | -27.64868 | 152.41463 | 5103 ft | 277 kts | 81° |
| 2026-04-15 12:53 | -27.64568 | 152.43586 | 5104 ft | 277 kts | 81° |
| 2026-04-15 12:54 | -27.64264 | 152.45738 | 5100 ft | 277 kts | 81° |
| 2026-04-15 12:54 | -27.63960 | 152.47887 | 5100 ft | 277 kts | 81° |
| 2026-04-15 12:54 | -27.63744 | 152.50044 | 5095 ft | 277 kts | 94° |
| 2026-04-15 12:54 | -27.64259 | 152.52114 | 5098 ft | 276 kts | 121° |
| 2026-04-15 12:55 | -27.65545 | 152.53693 | 5095 ft | 274 kts | 148° |
| 2026-04-15 12:55 | -27.67313 | 152.54431 | 5096 ft | 272 kts | 175° |
| 2026-04-15 12:55 | -27.69172 | 152.54168 | 5094 ft | 270 kts | 203° |
| 2026-04-15 12:55 | -27.70698 | 152.52975 | 5097 ft | 269 kts | 230° |
| 2026-04-15 12:56 | -27.71596 | 152.51151 | 5098 ft | 268 kts | 255° |
| 2026-04-15 12:56 | -27.71898 | 152.49106 | 5098 ft | 268 kts | 262° |
| 2026-04-15 12:56 | -27.72169 | 152.47025 | 5100 ft | 268 kts | 262° |
| 2026-04-15 12:56 | -27.72453 | 152.44948 | 5108 ft | 267 kts | 261° |
| 2026-04-15 12:57 | -27.72743 | 152.42875 | 5108 ft | 268 kts | 261° |
| 2026-04-15 12:57 | -27.73035 | 152.40803 | 5106 ft | 267 kts | 261° |
| 2026-04-15 12:57 | -27.73328 | 152.38721 | 5111 ft | 268 kts | 261° |
| 2026-04-15 12:57 | -27.73619 | 152.36650 | 5117 ft | 267 kts | 261° |
| 2026-04-15 12:58 | -27.73910 | 152.34580 | 5117 ft | 267 kts | 261° |
| 2026-04-15 12:58 | -27.74137 | 152.32501 | 5116 ft | 267 kts | 272° |
| 2026-04-15 12:58 | -27.73661 | 152.30498 | 5122 ft | 268 kts | 306° |
| 2026-04-15 12:58 | -27.72331 | 152.29031 | 5117 ft | 271 kts | 332° |
| 2026-04-15 12:59 | -27.68708 | 152.28679 | 5117 ft | 275 kts | 25° |
| 2026-04-15 12:59 | -27.67202 | 152.29924 | 5117 ft | 263 kts | 53° |
| 2026-04-15 12:59 | -27.66430 | 152.31691 | 5105 ft | 244 kts | 80° |
| 2026-04-15 13:00 | -27.66170 | 152.33574 | 5114 ft | 245 kts | 83° |
| 2026-04-15 13:00 | -27.65906 | 152.35474 | 5113 ft | 244 kts | 82° |
| 2026-04-15 13:00 | -27.65625 | 152.37357 | 5114 ft | 243 kts | 81° |
| 2026-04-15 13:00 | -27.65337 | 152.39234 | 5116 ft | 243 kts | 81° |
| 2026-04-15 13:01 | -27.65051 | 152.41109 | 5106 ft | 242 kts | 81° |
| 2026-04-15 13:01 | -27.64767 | 152.42988 | 5104 ft | 243 kts | 81° |
| 2026-04-15 13:01 | -27.64486 | 152.44870 | 5102 ft | 243 kts | 81° |
| 2026-04-15 13:01 | -27.64202 | 152.46749 | 5101 ft | 242 kts | 78° |
| 2026-04-15 13:02 | -27.63481 | 152.48441 | 5094 ft | 242 kts | 49° |
| 2026-04-15 13:02 | -27.62110 | 152.49538 | 5106 ft | 253 kts | 20° |
| 2026-04-15 13:02 | -27.60336 | 152.49904 | 5103 ft | 262 kts | 4° |
| 2026-04-15 13:02 | -27.58534 | 152.49993 | 5089 ft | 261 kts | 1° |
| 2026-04-15 13:03 | -27.56708 | 152.50132 | 4845 ft | 260 kts | 8° |
| 2026-04-15 13:03 | -27.54960 | 152.50516 | 4518 ft | 248 kts | 11° |
| 2026-04-15 13:03 | -27.53361 | 152.50924 | 4373 ft | 231 kts | 16° |
| 2026-04-15 13:03 | -27.51891 | 152.51569 | 4121 ft | 224 kts | 26° |
| 2026-04-15 13:04 | -27.50571 | 152.52491 | 3843 ft | 220 kts | 38° |
| 2026-04-15 13:04 | -27.49496 | 152.53730 | 3779 ft | 226 kts | 56° |
| 2026-04-15 13:04 | -27.48694 | 152.55284 | 3784 ft | 241 kts | 60° |
| 2026-04-15 13:04 | -27.47919 | 152.56935 | 3765 ft | 229 kts | 60° |
| 2026-04-15 13:05 | -27.47221 | 152.58468 | 3769 ft | 211 kts | 60° |
| 2026-04-15 13:05 | -27.46582 | 152.59877 | 3785 ft | 192 kts | 60° |
| 2026-04-15 13:05 | -27.46075 | 152.61190 | 3659 ft | 178 kts | 75° |
| 2026-04-15 13:05 | -27.46176 | 152.62539 | 3425 ft | 175 kts | 113° |
| 2026-04-15 13:06 | -27.46937 | 152.63604 | 3223 ft | 178 kts | 141° |
| 2026-04-15 13:06 | -27.47998 | 152.64304 | 3012 ft | 179 kts | 154° |
| 2026-04-15 13:06 | -27.49147 | 152.64839 | 2768 ft | 176 kts | 159° |
| 2026-04-15 13:06 | -27.50313 | 152.65337 | 2551 ft | 181 kts | 158° |
| 2026-04-15 13:07 | -27.51469 | 152.65844 | 2313 ft | 175 kts | 158° |
| 2026-04-15 13:07 | -27.52608 | 152.66342 | 2085 ft | 178 kts | 158° |
| 2026-04-15 13:07 | -27.53752 | 152.66842 | 1849 ft | 173 kts | 157° |
| 2026-04-15 13:07 | -27.54884 | 152.67341 | 1625 ft | 175 kts | 157° |
| 2026-04-15 13:08 | -27.55984 | 152.67822 | 1400 ft | 171 kts | 158° |
| 2026-04-15 13:08 | -27.57087 | 152.68299 | 1124 ft | 167 kts | 157° |
| 2026-04-15 13:08 | -27.58142 | 152.68765 | 865 ft | 157 kts | 158° |
| 2026-04-15 13:08 | -27.59171 | 152.69201 | 669 ft | 151 kts | 156° |
| 2026-04-15 13:09 | -27.60151 | 152.69636 | 527 ft | 156 kts | 157° |
| 2026-04-15 13:09 | -27.61132 | 152.70062 | 356 ft | 151 kts | 157° |
| 2026-04-15 13:09 | -27.62133 | 152.70507 | 154 ft | 153 kts | 157° |
| 2026-04-15 13:09 | -27.63070 | 152.70922 | 105 ft | 130 kts | 159° |
| 2026-04-15 13:10 | -27.63697 | 152.71194 | 108 ft | 70 kts | 159° |
| 2026-04-15 13:10 | -27.64039 | 152.71345 | 108 ft | 21 kts | 158° |
| 2026-04-15 13:10 | -27.64118 | 152.71322 | 110 ft | 13 kts | 220° |
| 2026-04-15 13:10 | -27.64166 | 152.71245 | 110 ft | 11 kts | 240° |
| 2026-04-15 13:11 | -27.64131 | 152.71175 | 110 ft | 12 kts | 333° |
| 2026-04-15 13:11 | -27.64075 | 152.71152 | 109 ft | 8 kts | 337° |
| 2026-04-15 13:11 | -27.64016 | 152.71118 | 110 ft | 11 kts | 335° |
| 2026-04-15 13:11 | -27.63965 | 152.71095 | 110 ft | 13 kts | 339° |
| 2026-04-15 13:12 | -27.63869 | 152.71055 | 108 ft | 17 kts | 340° |
| 2026-04-15 13:12 | -27.63745 | 152.71000 | 106 ft | 21 kts | 339° |
| 2026-04-15 13:12 | -27.63614 | 152.70943 | 106 ft | 19 kts | 338° |
| 2026-04-15 13:12 | -27.63484 | 152.70885 | 107 ft | 21 kts | 339° |
| 2026-04-15 13:13 | -27.63305 | 152.70808 | 105 ft | 20 kts | 339° |
| 2026-04-15 13:13 | -27.63215 | 152.70769 | 105 ft | 21 kts | 339° |
| 2026-04-15 13:13 | -27.63079 | 152.70710 | 105 ft | 21 kts | 339° |
| 2026-04-15 13:13 | -27.62948 | 152.70652 | 107 ft | 20 kts | 338° |
| 2026-04-15 13:14 | -27.62819 | 152.70594 | 106 ft | 20 kts | 338° |
| 2026-04-15 13:14 | -27.62688 | 152.70534 | 106 ft | 19 kts | 338° |
| 2026-04-15 13:14 | -27.62565 | 152.70476 | 107 ft | 17 kts | 321° |
| 2026-04-15 13:14 | -27.62565 | 152.70382 | 102 ft | 12 kts | 251° |
| 2026-04-15 13:15 | -27.62595 | 152.70291 | 103 ft | 12 kts | 255° |
| 2026-04-15 13:15 | -27.62558 | 152.70244 | 101 ft | 6 kts | 336° |
| 2026-04-15 13:15 | -27.62539 | 152.70235 | 102 ft | 0 kts | 337° |